createdAt,value
2023-03-21T00:01:54.514Z,9.20
2023-03-21T00:04:28.436Z,8.73
2023-03-21T00:06:58.120Z,6.28
2023-03-21T00:09:24.914Z,6.13
2023-03-21T00:11:51.737Z,7.28
2023-03-21T00:14:23.696Z,7.90
2023-03-21T00:16:51.525Z,5.85
2023-03-21T00:19:21.049Z,6.93
2023-03-21T00:22:05.893Z,8.38
2023-03-21T00:24:34.155Z,7.30
2023-03-21T00:27:21.933Z,6.80
2023-03-21T00:29:51.761Z,6.70
2023-03-21T00:32:19.914Z,8.43
2023-03-21T00:35:01.462Z,9.70
2023-03-21T00:37:29.291Z,7.45
2023-03-21T00:39:56.358Z,6.82
2023-03-21T00:42:23.259Z,5.93
2023-03-21T00:44:50.004Z,5.13
2023-03-21T00:47:16.994Z,7.50
2023-03-21T00:49:43.798Z,8.00
2023-03-21T00:52:27.555Z,7.20
2023-03-21T00:54:58.188Z,7.60
2023-03-21T00:57:38.169Z,7.68
2023-03-21T01:00:09.771Z,9.38
2023-03-21T01:02:38.081Z,7.22
2023-03-21T01:05:05.483Z,6.20
2023-03-21T01:07:32.440Z,7.35
2023-03-21T01:09:59.269Z,6.07
2023-03-21T01:12:26.141Z,6.45
2023-03-21T01:14:52.881Z,9.45
2023-03-21T01:17:19.705Z,7.07
2023-03-21T01:19:52.115Z,5.78
2023-03-21T01:22:20.070Z,5.55
2023-03-21T01:24:55.161Z,5.28
2023-03-21T01:27:25.589Z,5.97
2023-03-21T01:29:52.466Z,7.15
2023-03-21T01:32:19.378Z,7.00
2023-03-21T01:34:46.249Z,6.97
2023-03-21T01:37:13.238Z,7.38
2023-03-21T01:39:46.634Z,4.63
2023-03-21T01:42:14.033Z,6.85
2023-03-21T01:45:03.343Z,4.75
2023-03-21T01:47:45.022Z,7.40
2023-03-21T01:50:39.166Z,5.57
2023-03-21T01:53:21.603Z,5.28
2023-03-21T01:55:49.920Z,5.25
2023-03-21T01:58:35.011Z,5.22
2023-03-21T02:01:25.476Z,5.88
2023-03-21T02:03:56.562Z,6.70
2023-03-21T02:06:50.674Z,5.47
2023-03-21T02:09:47.810Z,4.38
2023-03-21T02:12:21.024Z,6.47
2023-03-21T02:14:49.853Z,6.32
2023-03-21T02:17:56.394Z,6.22
2023-03-21T02:20:51.229Z,5.53
2023-03-21T02:23:23.404Z,5.32
2023-03-21T02:26:36.124Z,6.20
2023-03-21T02:29:18.355Z,4.43
2023-03-21T02:31:51.840Z,5.60
2023-03-21T02:34:37.681Z,5.55
2023-03-21T02:37:11.486Z,5.18
2023-03-21T02:40:08.104Z,4.78
2023-03-21T02:42:59.972Z,4.25
2023-03-21T02:46:05.151Z,5.50
2023-03-21T02:48:49.733Z,5.05
2023-03-21T02:51:21.804Z,7.30
2023-03-21T02:56:37.024Z,4.10
2023-03-21T02:59:05.615Z,5.20
2023-03-21T03:01:34.206Z,5.00
2023-03-21T03:04:01.593Z,5.00
2023-03-21T03:06:44.410Z,4.70
2023-03-21T03:09:56.282Z,4.35
2023-03-21T03:12:45.101Z,4.95
2023-03-21T03:15:23.882Z,4.95
2023-03-21T03:18:12.502Z,6.20
2023-03-21T03:20:50.880Z,3.65
2023-03-21T03:23:30.610Z,3.15
2023-03-21T03:26:03.394Z,3.83
2023-03-21T03:28:35.746Z,3.45
2023-03-21T03:31:10.235Z,2.97
2023-03-21T03:33:45.042Z,3.70
2023-03-21T03:36:30.532Z,3.97
2023-03-21T03:39:04.736Z,1.98
2023-03-21T03:41:57.727Z,1.90
2023-03-21T03:44:21.491Z,1.77
2023-03-21T03:47:04.525Z,2.15
2023-03-21T03:49:43.611Z,1.70
2023-03-21T03:52:20.959Z,1.40
2023-03-21T03:55:00.621Z,1.30
2023-03-21T03:57:31.643Z,1.33
2023-03-21T03:59:58.517Z,1.50
2023-03-21T04:02:44.116Z,1.40
2023-03-21T04:05:13.110Z,1.20
2023-03-21T04:07:39.958Z,1.25
2023-03-21T04:10:07.185Z,1.30
2023-03-21T04:12:40.610Z,1.13
2023-03-21T04:15:32.038Z,1.10
2023-03-21T04:18:05.984Z,1.45
2023-03-21T04:20:37.208Z,1.35
2023-03-21T04:23:10.196Z,1.33
2023-03-21T04:25:47.659Z,1.45
2023-03-21T04:28:22.181Z,1.70
2023-03-21T04:31:15.978Z,1.67
2023-03-21T04:33:52.379Z,1.88
2023-03-21T04:36:26.491Z,2.40
2023-03-21T04:39:01.607Z,2.50
2023-03-21T04:41:29.676Z,2.50
2023-03-21T04:43:57.186Z,2.10
2023-03-21T04:46:24.359Z,2.45
2023-03-21T04:48:51.357Z,1.85
2023-03-21T04:51:18.230Z,2.10
2023-03-21T04:53:46.969Z,1.85
2023-03-21T04:56:14.340Z,2.13
2023-03-21T04:58:42.089Z,2.03
2023-03-21T05:01:09.204Z,2.20
2023-03-21T05:03:40.151Z,1.92
2023-03-21T05:08:36.569Z,1.70
2023-03-21T05:11:04.773Z,1.92
2023-03-21T05:13:31.715Z,1.92
2023-03-21T05:15:58.501Z,1.95
2023-03-21T05:18:25.382Z,1.98
2023-03-21T05:21:08.005Z,1.80
2023-03-21T05:23:38.371Z,2.72
2023-03-21T05:26:07.404Z,2.35
2023-03-21T05:28:41.243Z,1.73
2023-03-21T05:31:09.049Z,1.65
2023-03-21T05:33:36.052Z,2.03
2023-03-21T05:36:02.942Z,2.58
2023-03-21T05:38:32.151Z,1.70
2023-03-21T05:40:59.552Z,1.83
2023-03-21T05:43:26.855Z,1.80
2023-03-21T05:45:53.771Z,1.73
2023-03-21T05:48:21.172Z,1.70
2023-03-21T05:51:05.445Z,3.72
2023-03-21T05:53:32.282Z,2.00
2023-03-21T05:55:59.182Z,2.13
2023-03-21T05:58:42.090Z,1.85
2023-03-21T06:01:09.123Z,2.25
2023-03-21T06:03:38.897Z,2.30
2023-03-21T06:06:26.072Z,3.47
2023-03-21T06:08:55.397Z,1.98
2023-03-21T06:11:26.649Z,2.78
2023-03-21T06:14:09.230Z,2.67
2023-03-21T06:16:36.240Z,3.00
2023-03-21T06:19:03.019Z,2.70
2023-03-21T06:21:40.972Z,3.00
2023-03-21T06:24:09.327Z,3.67
2023-03-21T06:26:36.294Z,3.30
2023-03-21T06:29:03.671Z,4.38
2023-03-21T06:31:31.117Z,3.53
2023-03-21T06:34:02.365Z,3.63
2023-03-21T06:36:29.960Z,3.58
2023-03-21T06:38:56.796Z,3.40
2023-03-21T06:41:23.671Z,2.60
2023-03-21T06:44:08.636Z,2.97
2023-03-21T06:46:44.149Z,2.38
2023-03-21T06:49:12.125Z,2.08
2023-03-21T06:51:38.944Z,1.95
2023-03-21T06:54:10.444Z,1.70
2023-03-21T06:56:47.236Z,1.80
2023-03-21T06:59:21.737Z,1.60
2023-03-21T07:02:01.395Z,1.40
2023-03-21T07:04:29.524Z,1.45
2023-03-21T07:06:57.902Z,1.75
2023-03-21T07:09:28.298Z,1.30
2023-03-21T07:12:00.414Z,1.55
2023-03-21T07:14:37.899Z,1.10
2023-03-21T07:17:04.752Z,1.27
2023-03-21T07:19:31.576Z,0.90
2023-03-21T07:22:00.312Z,0.82
2023-03-21T07:24:28.607Z,0.88
2023-03-21T07:26:56.374Z,1.00
2023-03-21T07:29:23.371Z,0.90
2023-03-21T07:31:50.520Z,0.60
2023-03-21T07:34:17.923Z,0.60
2023-03-21T07:36:45.399Z,0.75
2023-03-21T07:39:12.870Z,0.90
2023-03-21T07:41:39.810Z,0.90
2023-03-21T07:44:36.043Z,0.52
2023-03-21T07:47:04.500Z,0.40
2023-03-21T07:49:31.987Z,0.90
2023-03-21T07:52:00.027Z,0.90
2023-03-21T07:54:28.616Z,1.10
2023-03-21T07:56:56.928Z,0.70
2023-03-21T07:59:23.964Z,0.80
2023-03-21T08:01:51.122Z,0.50
2023-03-21T08:04:18.085Z,0.82
2023-03-21T08:06:44.957Z,0.88
2023-03-21T08:09:11.698Z,1.02
2023-03-21T08:11:38.541Z,0.75
2023-03-21T08:14:05.444Z,1.15
2023-03-21T08:16:32.375Z,1.00
2023-03-21T08:18:59.147Z,0.90
2023-03-21T08:21:26.344Z,0.98
2023-03-21T08:23:53.539Z,0.70
2023-03-21T08:26:20.399Z,0.60
2023-03-21T08:28:47.197Z,0.73
2023-03-21T08:31:14.526Z,0.43
2023-03-21T08:33:41.309Z,0.50
2023-03-21T08:36:08.776Z,0.60
2023-03-21T08:38:36.047Z,0.77
2023-03-21T08:41:03.415Z,0.77
2023-03-21T08:43:30.384Z,0.90
2023-03-21T08:45:57.262Z,0.70
2023-03-21T08:48:24.191Z,0.80
2023-03-21T08:50:51.400Z,0.50
2023-03-21T08:53:18.251Z,0.75
2023-03-21T08:55:45.357Z,0.70
2023-03-21T08:58:12.242Z,0.70
2023-03-21T09:00:39.055Z,0.70
2023-03-21T09:03:05.819Z,0.77
2023-03-21T09:05:32.720Z,0.70
2023-03-21T09:08:01.662Z,1.00
2023-03-21T09:10:28.610Z,0.95
2023-03-21T09:12:55.865Z,0.95
2023-03-21T09:15:25.086Z,0.80
2023-03-21T09:17:57.206Z,1.00
2023-03-21T09:20:33.144Z,1.00
2023-03-21T09:23:01.946Z,1.23
2023-03-21T09:25:31.461Z,0.95
2023-03-21T09:28:05.384Z,0.95
2023-03-21T09:30:33.760Z,1.13
2023-03-21T09:33:02.081Z,1.20
2023-03-21T09:35:29.346Z,1.30
2023-03-21T09:37:59.604Z,1.20
2023-03-21T09:40:50.231Z,1.83
2023-03-21T09:43:36.291Z,1.27
2023-03-21T09:46:10.827Z,0.88
2023-03-21T09:48:56.097Z,1.20
2023-03-21T09:51:27.330Z,0.75
2023-03-21T09:53:57.219Z,1.17
2023-03-21T09:56:26.140Z,0.73
2023-03-21T09:58:59.429Z,1.02
2023-03-21T10:01:34.466Z,0.80
2023-03-21T10:04:05.548Z,1.10
2023-03-21T10:09:14.092Z,0.77
2023-03-21T10:14:17.058Z,0.70
2023-03-21T10:16:45.882Z,0.70
2023-03-21T10:19:15.466Z,0.80
2023-03-21T10:22:03.344Z,0.88
2023-03-21T10:24:33.475Z,0.60
2023-03-21T10:27:01.729Z,0.70
2023-03-21T10:29:37.201Z,0.70
2023-03-21T10:32:04.424Z,0.70
2023-03-21T10:34:41.587Z,0.90
2023-03-21T10:37:08.542Z,0.57
2023-03-21T10:39:38.274Z,0.70
2023-03-21T10:42:05.301Z,0.68
2023-03-21T10:44:34.182Z,0.63
2023-03-21T10:47:06.949Z,0.63
2023-03-21T10:49:40.663Z,0.60
2023-03-21T10:52:22.967Z,0.70
2023-03-21T10:54:50.283Z,0.40
2023-03-21T10:57:21.942Z,0.60
2023-03-21T11:00:00.394Z,0.60
2023-03-21T11:02:37.625Z,0.63
2023-03-21T11:05:08.212Z,0.50
2023-03-21T11:07:37.132Z,0.50
2023-03-21T11:10:19.743Z,0.68
2023-03-21T11:12:49.922Z,0.70
2023-03-21T11:15:33.216Z,0.60
2023-03-21T11:18:01.708Z,0.47
2023-03-21T11:20:32.245Z,0.50
2023-03-21T11:22:59.172Z,0.47
2023-03-21T11:25:51.927Z,0.40
2023-03-21T11:28:22.780Z,0.40
2023-03-21T11:30:56.263Z,0.45
2023-03-21T11:33:30.699Z,0.40
2023-03-21T11:36:06.012Z,0.32
2023-03-21T11:38:37.954Z,0.40
2023-03-21T11:41:05.884Z,0.30
2023-03-21T11:43:39.293Z,0.32
2023-03-21T11:46:06.549Z,0.50
2023-03-21T11:48:43.355Z,0.50
2023-03-21T11:51:24.937Z,0.50
2023-03-21T11:54:00.928Z,0.70
2023-03-21T11:56:29.844Z,0.30
2023-03-21T11:59:24.645Z,0.40
2023-03-21T12:02:13.025Z,0.43
2023-03-21T12:04:42.996Z,0.50
2023-03-21T12:07:25.045Z,0.40
2023-03-21T12:10:27.297Z,0.40
2023-03-21T12:12:59.933Z,0.50
2023-03-21T12:15:39.391Z,0.50
2023-03-21T12:18:12.302Z,0.40
2023-03-21T12:21:15.851Z,0.40
2023-03-21T12:23:42.622Z,0.50
2023-03-21T12:26:28.509Z,0.40
2023-03-21T12:28:58.319Z,0.50
2023-03-21T12:31:31.187Z,0.40
2023-03-21T12:34:04.239Z,0.32
2023-03-21T12:36:48.946Z,0.40
2023-03-21T12:39:29.388Z,0.28
2023-03-21T12:42:24.046Z,0.30
2023-03-21T12:45:02.210Z,0.45
2023-03-21T12:47:33.017Z,0.40
2023-03-21T12:50:02.721Z,0.70
2023-03-21T12:52:33.571Z,0.40
2023-03-21T12:55:06.720Z,0.47
2023-03-21T12:57:47.760Z,0.50
2023-03-21T13:00:25.949Z,0.32
2023-03-21T13:02:56.538Z,0.50
2023-03-21T13:05:35.839Z,0.45
2023-03-21T13:08:09.634Z,0.60
2023-03-21T13:10:37.304Z,0.50
2023-03-21T13:13:22.819Z,0.40
2023-03-21T13:16:08.723Z,0.52
2023-03-21T13:19:02.068Z,0.65
2023-03-21T13:21:51.956Z,0.75
2023-03-21T13:24:48.945Z,0.40
2023-03-21T13:27:24.831Z,0.47
2023-03-21T13:29:54.208Z,0.50
2023-03-21T13:32:28.767Z,0.60
2023-03-21T13:34:58.131Z,0.50
2023-03-21T13:37:30.986Z,0.40
2023-03-21T13:40:10.813Z,0.43
2023-03-21T13:42:44.511Z,0.60
2023-03-21T13:45:22.363Z,0.55
2023-03-21T13:47:55.163Z,0.70
2023-03-21T13:50:28.563Z,0.60
2023-03-21T13:53:04.592Z,0.60
2023-03-21T13:55:40.775Z,0.80
2023-03-21T13:58:37.110Z,0.98
2023-03-21T14:01:35.481Z,0.60
2023-03-21T14:04:18.273Z,0.70
2023-03-21T14:06:56.082Z,0.68
2023-03-21T14:09:31.041Z,0.55
2023-03-21T14:12:03.965Z,0.60
2023-03-21T14:14:38.734Z,1.10
2023-03-21T14:17:31.986Z,0.80
2023-03-21T14:20:20.290Z,0.77
2023-03-21T14:22:48.435Z,0.70
2023-03-21T14:25:17.876Z,0.55
2023-03-21T14:27:54.641Z,1.05
2023-03-21T14:30:27.042Z,0.95
2023-03-21T14:32:56.245Z,0.90
2023-03-21T14:35:23.101Z,0.75
2023-03-21T14:37:50.328Z,0.77
2023-03-21T14:40:28.372Z,0.60
2023-03-21T14:42:55.849Z,0.50
2023-03-21T14:45:28.070Z,0.40
2023-03-21T14:48:01.130Z,0.60
2023-03-21T14:50:34.435Z,0.60
2023-03-21T14:53:01.370Z,0.55
2023-03-21T14:55:28.202Z,0.40
2023-03-21T14:57:55.911Z,0.38
2023-03-21T15:00:29.297Z,0.60
2023-03-21T15:02:58.168Z,0.40
2023-03-21T15:05:33.515Z,0.50
2023-03-21T15:08:11.388Z,0.60
2023-03-21T15:10:38.957Z,0.55
2023-03-21T15:13:40.820Z,0.70
2023-03-21T15:16:08.366Z,0.70
2023-03-21T15:18:37.891Z,0.45
2023-03-21T15:21:10.487Z,0.50
2023-03-21T15:23:45.344Z,0.50
2023-03-21T15:26:17.109Z,0.80
2023-03-21T15:28:51.556Z,0.57
2023-03-21T15:31:24.112Z,0.22
2023-03-21T15:33:53.192Z,0.52
2023-03-21T15:36:26.992Z,0.75
2023-03-21T15:38:54.806Z,0.50
2023-03-21T15:41:23.086Z,0.60
2023-03-21T15:44:02.098Z,0.10
2023-03-21T15:46:48.350Z,0.50
2023-03-21T15:49:15.230Z,0.52
2023-03-21T15:51:46.713Z,0.43
2023-03-21T15:54:22.229Z,0.30
2023-03-21T15:56:51.805Z,0.55
2023-03-21T15:59:19.539Z,0.38
2023-03-21T16:01:49.932Z,0.50
2023-03-21T16:04:18.799Z,0.50
2023-03-21T16:07:04.119Z,0.30
2023-03-21T16:09:44.546Z,0.40
2023-03-21T16:12:13.394Z,0.30
2023-03-21T16:14:40.915Z,0.50
2023-03-21T16:17:27.929Z,0.30
2023-03-21T16:19:54.763Z,0.43
2023-03-21T16:22:22.369Z,0.70
2023-03-21T16:24:49.454Z,0.40
2023-03-21T16:27:17.731Z,0.60
2023-03-21T16:29:44.525Z,0.40
2023-03-21T16:32:16.071Z,0.43
2023-03-21T16:34:42.909Z,0.50
2023-03-21T16:37:11.913Z,0.55
2023-03-21T16:39:39.012Z,0.55
2023-03-21T16:42:05.913Z,0.73
2023-03-21T16:44:33.916Z,0.40
2023-03-21T16:47:02.314Z,0.55
2023-03-21T16:49:29.400Z,0.50
2023-03-21T16:51:57.406Z,0.55
2023-03-21T16:54:24.748Z,0.45
2023-03-21T16:56:55.552Z,0.40
2023-03-21T16:59:22.559Z,0.52
2023-03-21T17:01:49.916Z,0.40
2023-03-21T17:04:18.166Z,0.25
2023-03-21T17:06:47.716Z,0.65
2023-03-21T17:09:16.038Z,0.30
2023-03-21T17:11:43.152Z,0.38
2023-03-21T17:14:11.524Z,0.43
2023-03-21T17:16:43.103Z,0.50
2023-03-21T17:19:23.986Z,0.40
2023-03-21T17:21:51.123Z,0.50
2023-03-21T17:24:17.958Z,0.30
2023-03-21T17:26:44.995Z,0.47
2023-03-21T17:29:15.433Z,0.32
2023-03-21T17:31:44.019Z,1.02
2023-03-21T17:34:11.213Z,0.47
2023-03-21T17:36:40.740Z,0.80
2023-03-21T17:39:10.998Z,0.77
2023-03-21T17:41:37.997Z,0.73
2023-03-21T17:44:04.886Z,0.75
2023-03-21T17:46:36.061Z,0.65
2023-03-21T17:49:03.410Z,0.60
2023-03-21T17:51:30.563Z,0.77
2023-03-21T17:53:57.558Z,0.90
2023-03-21T17:56:32.724Z,1.20
2023-03-21T17:59:02.574Z,1.10
2023-03-21T18:01:31.993Z,0.80
2023-03-21T18:03:59.414Z,1.38
2023-03-21T18:06:26.859Z,1.90
2023-03-21T18:08:54.601Z,1.50
2023-03-21T18:11:23.182Z,1.30
2023-03-21T18:13:50.233Z,1.15
2023-03-21T18:16:22.408Z,1.10
2023-03-21T18:18:51.059Z,1.15
2023-03-21T18:21:20.208Z,1.17
2023-03-21T18:23:47.847Z,1.00
2023-03-21T18:26:22.867Z,1.50
2023-03-21T18:29:43.927Z,1.10
2023-03-21T18:31:38.282Z,1.25
2023-03-21T18:34:05.143Z,1.08
2023-03-21T18:36:32.143Z,0.95
2023-03-21T18:38:59.012Z,1.15
2023-03-21T18:41:26.136Z,0.80
2023-03-21T18:44:02.787Z,0.80
2023-03-21T18:46:47.452Z,0.77
2023-03-21T18:50:01.674Z,1.20
2023-03-21T18:52:02.732Z,1.33
2023-03-21T18:54:30.345Z,1.20
2023-03-21T18:57:33.795Z,1.17
2023-03-21T18:59:44.671Z,1.40
2023-03-21T19:02:14.094Z,1.42
2023-03-21T19:04:41.503Z,1.38
2023-03-21T19:07:08.683Z,1.77
2023-03-21T19:09:58.241Z,1.70
2023-03-21T19:12:24.377Z,1.50
2023-03-21T19:14:51.260Z,1.30
2023-03-21T19:20:05.878Z,1.30
2023-03-21T19:22:32.642Z,1.08
2023-03-21T19:24:59.431Z,1.00
2023-03-21T19:27:27.163Z,0.95
2023-03-21T19:30:10.904Z,1.25
2023-03-21T19:32:40.897Z,0.90
2023-03-21T19:35:08.100Z,0.70
2023-03-21T19:37:36.403Z,0.95
2023-03-21T19:40:05.613Z,0.93
2023-03-21T19:42:32.622Z,0.90
2023-03-21T19:45:01.388Z,0.80
2023-03-21T19:47:28.610Z,0.98
2023-03-21T19:50:40.753Z,1.40
2023-03-21T19:52:42.357Z,1.45
2023-03-21T19:55:10.893Z,1.08
2023-03-21T19:57:37.690Z,1.02
2023-03-21T20:00:05.447Z,1.20
2023-03-21T20:02:35.991Z,1.17
2023-03-21T20:07:32.924Z,1.10
2023-03-21T20:10:00.504Z,1.08
2023-03-21T20:12:27.693Z,0.85
2023-03-21T20:15:06.938Z,1.08
2023-03-21T20:17:39.982Z,1.00
2023-03-21T20:20:14.195Z,1.02
2023-03-21T20:23:05.581Z,1.52
2023-03-21T20:25:29.847Z,1.52
2023-03-21T20:28:12.836Z,2.03
2023-03-21T20:30:51.350Z,1.30
2023-03-21T20:33:29.479Z,1.30
2023-03-21T20:36:39.366Z,1.63
2023-03-21T20:39:07.987Z,1.00
2023-03-21T20:41:35.989Z,1.10
2023-03-21T20:46:51.104Z,1.17
2023-03-21T20:49:20.175Z,1.00
2023-03-21T20:54:35.603Z,1.30
2023-03-21T20:57:02.726Z,1.20
2023-03-21T20:59:30.072Z,1.05
2023-03-21T21:01:57.764Z,1.20
2023-03-21T21:04:44.867Z,1.10
2023-03-21T21:07:17.231Z,1.85
2023-03-21T21:09:45.260Z,1.10
2023-03-21T21:12:14.262Z,1.65
2023-03-21T21:14:42.059Z,1.15
2023-03-21T21:17:30.729Z,0.85
2023-03-21T21:19:57.527Z,0.80
2023-03-21T21:22:24.334Z,1.40
2023-03-21T21:24:51.405Z,1.20
2023-03-21T21:27:18.156Z,1.10
2023-03-21T21:29:47.825Z,1.40
2023-03-21T21:32:16.847Z,1.25
2023-03-21T21:34:43.848Z,0.90
2023-03-21T21:37:10.794Z,1.17
2023-03-21T21:39:38.682Z,1.33
2023-03-21T21:42:05.844Z,1.30
2023-03-21T21:44:32.695Z,1.10
2023-03-21T21:46:59.739Z,1.73
2023-03-21T21:49:28.272Z,1.38
2023-03-21T21:51:56.385Z,1.52
2023-03-21T21:54:23.258Z,1.10
2023-03-21T21:56:54.147Z,1.10
2023-03-21T22:01:51.516Z,1.55
2023-03-21T22:04:28.039Z,1.35
2023-03-21T22:06:56.093Z,1.42
2023-03-21T22:09:23.157Z,1.27
2023-03-21T22:11:50.085Z,1.67
2023-03-21T22:14:16.972Z,1.35
2023-03-21T22:16:44.123Z,1.52
2023-03-21T22:19:10.946Z,1.35
2023-03-21T22:21:37.764Z,1.20
2023-03-21T22:24:04.944Z,1.77
2023-03-21T22:26:31.914Z,1.85
2023-03-21T22:28:59.970Z,1.40
2023-03-21T22:31:27.107Z,1.90
2023-03-21T22:33:54.110Z,1.50
2023-03-21T22:36:21.183Z,2.08
2023-03-21T22:38:47.989Z,1.90
2023-03-21T22:41:14.918Z,1.88
2023-03-21T22:43:41.711Z,1.88
2023-03-21T22:46:08.570Z,1.83
2023-03-21T22:48:35.468Z,2.17
2023-03-21T22:51:02.327Z,1.98
2023-03-21T22:53:29.564Z,1.52
2023-03-21T22:55:56.611Z,1.80
2023-03-21T22:58:23.760Z,2.13
2023-03-21T23:00:50.695Z,2.53
2023-03-21T23:03:17.668Z,1.70
2023-03-21T23:05:45.342Z,2.47
2023-03-21T23:08:12.973Z,2.20
2023-03-21T23:10:43.433Z,2.75
2023-03-21T23:13:10.855Z,2.25
2023-03-21T23:15:40.749Z,2.72
2023-03-21T23:18:07.871Z,2.15
2023-03-21T23:20:34.823Z,2.17
2023-03-21T23:23:02.079Z,2.80
2023-03-21T23:25:30.526Z,2.33
2023-03-21T23:27:57.560Z,2.40
2023-03-21T23:30:24.487Z,2.00
2023-03-21T23:32:51.324Z,2.42
2023-03-21T23:35:18.731Z,2.28
2023-03-21T23:37:54.379Z,2.33
2023-03-21T23:40:21.406Z,2.75
2023-03-21T23:42:48.207Z,2.97
2023-03-21T23:45:15.633Z,2.22
2023-03-21T23:47:42.509Z,1.73
2023-03-21T23:50:10.310Z,2.42
2023-03-21T23:52:37.695Z,2.20
2023-03-21T23:55:05.840Z,1.48
2023-03-21T23:57:32.708Z,1.65
2023-03-21T23:59:59.809Z,2.20
